Time;durP1;ratioP1;P1;durP2;ratioP2;P2;SDS_P1;SDS_P2;PMS_P1;PMS_P2;Temp;Humidity;BMP_temperature;BMP_pressure;BME280_temperature;BME280_humidity;BME280_pressure;Samples;Min_cycle;Max_cycle;Signal;HPM_P1;HPM_P2
2021/07/06 00:01:37;;;;;;;4.90;2.17;;;21.10;99.90;;;;;;1853025;74;21157;-77
2021/07/06 00:04:05;;;;;;;9.00;2.17;;;21.20;99.90;;;;;;1800938;79;21132;-78
2021/07/06 00:06:32;;;;;;;4.87;2.00;;;21.10;99.90;;;;;;1844566;75;21121;-77
2021/07/06 00:09:00;;;;;;;4.25;2.00;;;21.10;99.90;;;;;;1846553;75;21077;-77
2021/07/06 00:11:27;;;;;;;5.72;1.92;;;21.10;99.90;;;;;;1873596;76;21133;-78
2021/07/06 00:13:55;;;;;;;4.30;2.10;;;21.20;99.90;;;;;;1838699;76;21071;-78
2021/07/06 00:16:22;;;;;;;4.95;2.02;;;21.20;99.90;;;;;;1882463;75;21183;-78
2021/07/06 00:18:50;;;;;;;5.10;2.10;;;21.20;99.90;;;;;;1883087;74;21189;-78
2021/07/06 00:21:17;;;;;;;5.70;1.90;;;21.20;99.90;;;;;;1880787;74;21126;-77
2021/07/06 00:23:47;;;;;;;3.58;1.80;;;21.20;99.90;;;;;;1886142;74;21103;-77
2021/07/06 00:26:14;;;;;;;2.83;2.17;;;21.20;99.90;;;;;;1879822;74;21144;-77
2021/07/06 00:28:42;;;;;;;9.28;2.20;;;21.20;99.90;;;;;;1886098;75;21089;-77
2021/07/06 00:31:10;;;;;;;4.70;2.10;;;21.20;99.90;;;;;;1880378;74;21136;-77
2021/07/06 00:33:38;;;;;;;4.97;1.70;;;21.20;99.90;;;;;;1887150;75;21183;-77
2021/07/06 00:36:06;;;;;;;3.47;1.98;;;21.20;99.90;;;;;;1887814;76;21089;-77
2021/07/06 00:38:33;;;;;;;4.70;1.82;;;21.30;99.90;;;;;;1888370;74;21154;-77
2021/07/06 00:41:02;;;;;;;3.67;1.80;;;21.30;99.90;;;;;;1889130;75;21793;-77
2021/07/06 00:43:30;;;;;;;6.10;2.02;;;21.20;99.90;;;;;;1880846;74;21130;-77
2021/07/06 00:46:01;;;;;;;5.95;1.95;;;21.30;99.90;;;;;;1836692;77;21571;-77
2021/07/06 00:48:29;;;;;;;6.80;2.05;;;21.30;99.90;;;;;;1886368;74;21050;-77
2021/07/06 00:50:56;;;;;;;10.32;2.10;;;21.30;99.90;;;;;;1858249;75;21677;-77
2021/07/06 00:53:25;;;;;;;4.47;2.22;;;21.30;99.90;;;;;;1883068;75;21102;-77
2021/07/06 00:55:56;;;;;;;7.00;1.70;;;21.30;99.90;;;;;;1889273;74;21193;-77
2021/07/06 00:58:25;;;;;;;6.17;1.80;;;21.30;99.90;;;;;;1838997;76;21102;-77
2021/07/06 01:00:53;;;;;;;4.00;2.50;;;21.30;99.90;;;;;;1880921;75;21160;-78
2021/07/06 01:03:22;;;;;;;4.58;2.08;;;21.30;99.90;;;;;;1839957;76;21583;-77
2021/07/06 01:05:50;;;;;;;6.25;2.20;;;21.30;99.90;;;;;;1886838;76;21164;-76
2021/07/06 01:08:17;;;;;;;2.55;2.08;;;21.40;99.90;;;;;;1884426;74;21100;-77
2021/07/06 01:10:45;;;;;;;5.62;2.15;;;21.40;99.90;;;;;;1887858;74;21227;-77
2021/07/06 01:13:13;;;;;;;5.08;2.00;;;21.40;99.90;;;;;;1841026;76;22260;-77
2021/07/06 01:15:40;;;;;;;2.55;1.85;;;21.40;99.90;;;;;;1835970;77;21106;-77
2021/07/06 01:18:14;;;;;;;4.65;2.30;;;21.40;99.90;;;;;;1842092;76;21572;-77
2021/07/06 01:20:44;;;;;;;5.47;1.95;;;21.40;99.90;;;;;;1846790;76;21207;-77
2021/07/06 01:23:12;;;;;;;7.00;2.08;;;21.40;99.90;;;;;;1833246;76;21121;-76
2021/07/06 01:25:42;;;;;;;5.20;2.10;;;21.40;99.90;;;;;;1843498;78;21074;-77
2021/07/06 01:28:10;;;;;;;7.15;2.20;;;21.40;99.90;;;;;;1856314;77;21605;-77
2021/07/06 01:30:38;;;;;;;9.30;2.30;;;21.40;99.90;;;;;;1844412;76;21598;-77
2021/07/06 01:33:08;;;;;;;4.78;2.17;;;21.40;99.90;;;;;;1900622;74;21090;-77
2021/07/06 01:35:36;;;;;;;2.95;2.27;;;21.40;99.90;;;;;;1892941;75;21030;-76
2021/07/06 01:38:07;;;;;;;8.70;2.30;;;21.40;99.90;;;;;;1888698;75;21050;-77
2021/07/06 01:40:34;;;;;;;4.35;2.08;;;21.40;99.90;;;;;;1890125;75;21586;-77
2021/07/06 01:43:03;;;;;;;6.95;2.25;;;21.40;99.90;;;;;;1890261;75;21026;-77
2021/07/06 01:45:31;;;;;;;5.67;2.30;;;21.40;99.90;;;;;;1887846;74;21042;-77
2021/07/06 01:48:02;;;;;;;7.50;2.40;;;21.40;99.90;;;;;;1862828;74;21472;-77
2021/07/06 01:50:38;;;;;;;4.72;2.55;;;21.40;99.90;;;;;;1842643;78;21556;-77
2021/07/06 01:53:11;;;;;;;3.00;2.12;;;21.40;99.90;;;;;;1886645;75;21461;-77
2021/07/06 01:55:45;;;;;;;4.70;2.00;;;21.40;99.90;;;;;;1884123;75;21103;-77
2021/07/06 01:58:15;;;;;;;4.78;2.27;;;21.40;99.90;;;;;;1877839;74;21122;-76
2021/07/06 02:00:55;;;;;;;4.20;2.40;;;21.40;99.90;;;;;;1887004;74;21134;-76
2021/07/06 02:03:22;;;;;;;4.35;2.12;;;21.40;99.90;;;;;;1888411;75;21133;-77
2021/07/06 02:05:59;;;;;;;5.22;2.30;;;21.30;99.90;;;;;;1844385;76;21179;-77
2021/07/06 02:08:28;;;;;;;4.35;2.30;;;21.30;99.90;;;;;;1839760;76;21129;-76
2021/07/06 02:10:59;;;;;;;6.60;2.25;;;21.30;99.90;;;;;;1832979;76;21133;-76
2021/07/06 02:13:28;;;;;;;7.30;2.23;;;21.40;99.90;;;;;;1850500;76;21184;-77
2021/07/06 02:15:58;;;;;;;5.80;2.65;;;21.30;99.90;;;;;;1841340;76;21109;-77
2021/07/06 02:18:27;;;;;;;5.03;2.25;;;21.30;99.90;;;;;;1815802;78;21039;-76
2021/07/06 02:20:56;;;;;;;7.10;2.47;;;21.40;99.90;;;;;;1835998;76;21587;-76
2021/07/06 02:23:25;;;;;;;7.85;2.33;;;21.40;99.90;;;;;;1855373;76;21031;-76
2021/07/06 02:25:53;;;;;;;5.00;2.62;;;21.30;99.90;;;;;;1807134;77;21113;-77
2021/07/06 02:28:22;;;;;;;6.72;2.70;;;21.30;99.90;;;;;;1884380;74;21579;-76
2021/07/06 02:30:50;;;;;;;6.62;2.77;;;21.30;99.90;;;;;;1838318;76;21243;-77
2021/07/06 02:33:18;;;;;;;5.12;2.75;;;21.30;99.90;;;;;;1888678;75;21179;-78
2021/07/06 02:35:47;;;;;;;7.75;2.62;;;21.30;99.90;;;;;;1886685;74;21063;-76
2021/07/06 02:38:17;;;;;;;4.67;2.60;;;21.30;99.90;;;;;;1884522;76;22175;-76
2021/07/06 02:40:45;;;;;;;7.12;2.67;;;21.30;99.90;;;;;;1886921;74;21078;-77
2021/07/06 02:43:13;;;;;;;5.15;3.05;;;21.30;99.90;;;;;;1878285;76;21075;-76
2021/07/06 02:45:40;;;;;;;6.53;2.40;;;21.30;99.90;;;;;;1882409;75;21128;-77
2021/07/06 02:48:09;;;;;;;5.95;2.75;;;21.30;99.90;;;;;;1887730;74;21167;-76
2021/07/06 02:50:39;;;;;;;5.37;2.60;;;21.30;99.90;;;;;;1880239;75;21201;-77
2021/07/06 02:53:07;;;;;;;10.10;3.12;;;21.30;99.90;;;;;;1878198;74;21134;-77
2021/07/06 02:55:35;;;;;;;4.90;2.55;;;21.30;99.90;;;;;;1880254;75;21038;-76
2021/07/06 02:58:03;;;;;;;5.42;2.33;;;21.30;99.90;;;;;;1885457;75;21089;-77
2021/07/06 03:00:32;;;;;;;6.85;3.02;;;21.30;99.90;;;;;;1894953;75;21576;-77
2021/07/06 03:03:05;;;;;;;8.53;3.22;;;21.20;99.90;;;;;;1889146;74;21192;-78
2021/07/06 03:05:33;;;;;;;5.45;2.80;;;21.20;99.90;;;;;;1808693;77;21070;-77
2021/07/06 03:08:02;;;;;;;11.33;2.90;;;21.20;99.90;;;;;;1881856;75;21130;-77
2021/07/06 03:10:32;;;;;;;5.45;2.30;;;21.20;99.90;;;;;;1872791;74;21136;-77
2021/07/06 03:13:01;;;;;;;5.80;2.83;;;21.30;99.90;;;;;;1883018;74;21195;-76
2021/07/06 03:15:31;;;;;;;10.00;2.95;;;21.30;99.90;;;;;;1884628;75;21167;-76
2021/07/06 03:18:02;;;;;;;2.80;2.42;;;21.20;99.90;;;;;;1881032;74;21115;-76
2021/07/06 03:20:30;;;;;;;7.67;3.02;;;21.30;99.90;;;;;;1879018;74;21149;-76
2021/07/06 03:22:58;;;;;;;6.83;2.50;;;21.20;99.90;;;;;;1877835;74;21091;-76
2021/07/06 03:25:28;;;;;;;5.17;2.98;;;21.30;99.90;;;;;;1833750;76;21151;-76
2021/07/06 03:27:57;;;;;;;7.37;2.62;;;21.30;99.90;;;;;;1870086;74;21626;-77
2021/07/06 03:30:29;;;;;;;8.73;2.62;;;21.30;99.90;;;;;;1833924;76;21255;-77
2021/07/06 03:32:59;;;;;;;3.95;2.70;;;21.30;99.90;;;;;;1884599;75;21102;-77
2021/07/06 03:35:27;;;;;;;8.23;2.70;;;21.30;99.90;;;;;;1898059;74;21519;-76
2021/07/06 03:37:56;;;;;;;8.73;2.62;;;21.30;99.90;;;;;;1887848;76;21364;-76
2021/07/06 03:40:23;;;;;;;3.25;2.27;;;21.30;99.90;;;;;;1875084;74;21146;-76
2021/07/06 03:42:52;;;;;;;4.28;2.50;;;21.30;99.90;;;;;;1865477;76;21104;-76
2021/07/06 03:45:22;;;;;;;4.28;2.67;;;21.30;99.90;;;;;;1880260;74;21603;-77
2021/07/06 03:47:53;;;;;;;4.35;2.50;;;21.30;99.90;;;;;;1887077;74;21105;-76
2021/07/06 03:50:23;;;;;;;8.13;3.00;;;21.40;99.90;;;;;;1886414;74;21080;-78
2021/07/06 03:52:54;;;;;;;8.78;2.87;;;21.30;99.90;;;;;;1907106;74;21062;-76
2021/07/06 03:55:22;;;;;;;9.30;2.98;;;21.30;99.90;;;;;;1879884;74;21059;-75
2021/07/06 03:57:49;;;;;;;8.13;2.70;;;21.30;99.90;;;;;;1882370;74;21591;-76
2021/07/06 04:00:20;;;;;;;9.10;2.58;;;21.40;99.90;;;;;;1879572;74;21087;-75
2021/07/06 04:02:48;;;;;;;8.78;2.50;;;21.40;99.90;;;;;;1875800;76;21126;-79
2021/07/06 04:05:17;;;;;;;9.55;2.65;;;21.40;99.90;;;;;;1886961;74;21098;-80
2021/07/06 04:07:46;;;;;;;3.05;2.37;;;21.30;99.90;;;;;;1901044;75;21115;-77
2021/07/06 04:10:19;;;;;;;5.53;2.83;;;21.40;99.90;;;;;;1900650;74;21088;-77
2021/07/06 04:12:45;;;;;;;5.87;2.50;;;21.40;99.90;;;;;;1908910;75;21114;-78
2021/07/06 04:15:14;;;;;;;4.25;2.42;;;21.40;99.90;;;;;;1892494;74;21580;-77
2021/07/06 04:17:42;;;;;;;7.67;2.95;;;21.40;99.90;;;;;;1878003;76;21105;-77
2021/07/06 04:20:13;;;;;;;3.92;2.20;;;21.30;99.90;;;;;;1883469;74;21124;-77
2021/07/06 04:22:41;;;;;;;13.32;3.02;;;21.30;99.90;;;;;;1887786;74;21187;-75
2021/07/06 04:25:09;;;;;;;8.03;2.40;;;21.40;99.90;;;;;;1883967;74;21634;-76
2021/07/06 04:27:37;;;;;;;5.60;2.52;;;21.40;99.90;;;;;;1866624;75;21093;-75
2021/07/06 04:30:08;;;;;;;5.17;2.30;;;21.40;99.90;;;;;;1837488;76;21185;-76
2021/07/06 04:32:36;;;;;;;4.37;2.55;;;21.40;99.90;;;;;;1881973;75;21101;-75
2021/07/06 04:35:05;;;;;;;7.75;2.52;;;21.50;99.90;;;;;;1888405;74;21097;-79
2021/07/06 04:37:33;;;;;;;6.90;2.87;;;21.40;99.90;;;;;;1841921;77;21090;-77
2021/07/06 04:40:00;;;;;;;5.85;2.72;;;21.50;99.90;;;;;;1838905;76;21123;-76
2021/07/06 04:42:28;;;;;;;6.17;2.92;;;21.50;99.90;;;;;;1873159;75;21629;-76
2021/07/06 04:44:55;;;;;;;5.12;2.37;;;21.50;99.90;;;;;;1889271;74;21108;-77
2021/07/06 04:47:23;;;;;;;6.95;2.37;;;21.60;99.90;;;;;;1876610;74;21206;-76
2021/07/06 04:49:50;;;;;;;6.05;2.25;;;21.50;99.90;;;;;;1887123;74;21122;-76
2021/07/06 04:52:18;;;;;;;5.30;2.37;;;21.60;99.90;;;;;;1878400;74;21156;-76
2021/07/06 04:54:46;;;;;;;2.75;1.85;;;21.50;99.90;;;;;;1838200;76;21175;-77
2021/07/06 04:57:13;;;;;;;10.25;2.17;;;21.60;99.90;;;;;;1893575;74;21054;-76
2021/07/06 04:59:46;;;;;;;8.05;2.20;;;21.60;99.90;;;;;;1878223;74;21074;-76
2021/07/06 05:02:10;;;;;;;5.90;1.82;;;21.60;99.90;;;;;;1877684;74;21212;-76
2021/07/06 05:04:38;;;;;;;3.20;2.17;;;21.60;99.90;;;;;;1853051;76;21239;-76
2021/07/06 05:07:05;;;;;;;3.83;2.00;;;21.60;99.90;;;;;;1883680;74;21559;-76
2021/07/06 05:09:33;;;;;;;6.62;1.80;;;21.60;99.90;;;;;;1882806;74;21082;-76
2021/07/06 05:12:01;;;;;;;4.80;3.02;;;21.60;99.90;;;;;;1881352;75;21139;-76
2021/07/06 05:14:29;;;;;;;8.70;3.50;;;21.60;99.90;;;;;;1899626;74;21171;-75
2021/07/06 05:16:57;;;;;;;4.28;2.12;;;21.60;99.90;;;;;;1887731;75;21095;-76
2021/07/06 05:19:24;;;;;;;5.12;1.80;;;21.70;99.90;;;;;;1881927;74;21463;-76
2021/07/06 05:21:52;;;;;;;7.10;1.75;;;21.70;99.90;;;;;;1880730;76;21200;-76
2021/07/06 05:24:19;;;;;;;3.20;1.45;;;21.70;99.90;;;;;;1905278;75;21063;-76
2021/07/06 05:26:47;;;;;;;3.83;1.80;;;21.70;99.90;;;;;;1885641;74;21085;-75
2021/07/06 05:29:15;;;;;;;3.50;1.72;;;21.80;99.90;;;;;;1887457;76;21617;-76
2021/07/06 05:31:43;;;;;;;4.78;1.82;;;21.80;99.90;;;;;;1840423;76;21105;-79
2021/07/06 05:34:10;;;;;;;6.80;1.80;;;21.90;99.90;;;;;;1885095;74;21060;-78
2021/07/06 05:36:38;;;;;;;6.08;2.02;;;21.90;99.90;;;;;;1880329;74;21176;-78
2021/07/06 05:39:08;;;;;;;9.03;1.70;;;21.90;99.90;;;;;;1878564;76;21071;-79
2021/07/06 05:41:36;;;;;;;3.67;1.65;;;21.90;99.90;;;;;;1849281;76;21130;-78
2021/07/06 05:44:03;;;;;;;6.78;2.00;;;22.00;99.90;;;;;;1848996;76;21567;-81
2021/07/06 05:46:31;;;;;;;9.08;3.65;;;21.90;99.90;;;;;;1813440;77;21643;-76
2021/07/06 05:48:59;;;;;;;4.87;2.70;;;21.90;99.90;;;;;;1883658;74;21012;-80
2021/07/06 05:51:26;;;;;;;4.72;1.90;;;22.00;99.90;;;;;;1849936;76;21169;-78
2021/07/06 05:53:54;;;;;;;3.25;1.75;;;22.00;99.90;;;;;;1887076;74;21120;-78
2021/07/06 05:56:22;;;;;;;4.83;1.82;;;22.10;99.90;;;;;;1881137;74;21094;-77
2021/07/06 05:58:50;;;;;;;7.85;3.20;;;22.10;99.90;;;;;;1875844;75;21408;-79
2021/07/06 06:01:18;;;;;;;8.35;5.60;;;22.10;99.90;;;;;;1884200;74;21121;-78
2021/07/06 06:03:45;;;;;;;4.08;1.80;;;22.10;99.90;;;;;;1882569;74;21688;-77
2021/07/06 06:06:13;;;;;;;3.08;1.60;;;22.20;99.90;;;;;;1827706;76;21113;-80
2021/07/06 06:08:42;;;;;;;2.58;1.40;;;22.20;99.90;;;;;;1887829;75;21101;-76
2021/07/06 06:11:09;;;;;;;3.55;1.72;;;22.20;99.90;;;;;;1885390;74;21177;-77
2021/07/06 06:13:38;;;;;;;4.17;1.55;;;22.30;99.90;;;;;;1883870;74;21136;-78
2021/07/06 06:16:07;;;;;;;2.30;1.50;;;22.30;99.90;;;;;;1888277;76;21059;-78
2021/07/06 06:18:35;;;;;;;3.62;1.70;;;22.30;99.90;;;;;;1835464;76;21233;-80
2021/07/06 06:21:03;;;;;;;2.92;1.62;;;22.40;99.90;;;;;;1889065;74;21144;-78
2021/07/06 06:23:30;;;;;;;3.62;1.50;;;22.40;99.90;;;;;;1878977;74;21066;-77
2021/07/06 06:25:59;;;;;;;3.37;1.50;;;22.40;99.90;;;;;;1811687;77;21610;-76
2021/07/06 06:28:27;;;;;;;2.50;1.30;;;22.40;99.90;;;;;;1900138;75;21137;-75
2021/07/06 06:30:55;;;;;;;3.60;1.17;;;22.40;99.90;;;;;;1887351;74;21591;-76
2021/07/06 06:33:23;;;;;;;5.35;1.70;;;22.50;99.90;;;;;;1878423;75;21153;-76
2021/07/06 06:35:51;;;;;;;15.20;4.75;;;22.50;99.90;;;;;;1883362;75;21101;-76
2021/07/06 06:38:18;;;;;;;15.85;5.03;;;22.50;99.90;;;;;;1871553;75;21642;-76
2021/07/06 06:40:45;;;;;;;24.27;8.23;;;22.50;99.90;;;;;;1897246;75;21155;-78
2021/07/06 06:43:13;;;;;;;5.67;2.70;;;22.60;99.90;;;;;;1891667;74;21121;-79
2021/07/06 06:45:41;;;;;;;4.17;1.20;;;22.60;99.90;;;;;;1842751;76;21093;-76
2021/07/06 06:48:08;;;;;;;3.95;1.47;;;22.60;99.90;;;;;;1883197;74;21077;-77
2021/07/06 06:50:36;;;;;;;8.05;1.40;;;22.60;99.90;;;;;;1879923;74;21593;-77
2021/07/06 06:53:03;;;;;;;3.40;1.30;;;22.60;99.90;;;;;;1887487;74;21564;-77
2021/07/06 06:55:31;;;;;;;4.55;1.40;;;22.60;99.90;;;;;;1877006;74;21119;-77
2021/07/06 06:57:58;;;;;;;4.67;1.60;;;22.60;99.90;;;;;;1883584;75;21110;-76
2021/07/06 07:00:26;;;;;;;3.45;1.10;;;22.70;99.90;;;;;;1881309;74;21127;-76
2021/07/06 07:02:55;;;;;;;3.27;1.25;;;22.70;99.90;;;;;;1887508;74;21119;-76
2021/07/06 07:05:23;;;;;;;5.37;1.45;;;22.80;99.90;;;;;;1840953;76;21105;-77
2021/07/06 07:07:50;;;;;;;1.77;0.90;;;22.80;99.90;;;;;;1810416;77;21610;-76
2021/07/06 07:10:19;;;;;;;4.90;1.20;;;22.90;99.90;;;;;;1858898;75;21137;-77
2021/07/06 07:12:47;;;;;;;3.87;1.30;;;23.00;99.90;;;;;;1841024;76;21133;-76
2021/07/06 07:15:15;;;;;;;3.92;1.22;;;23.00;99.90;;;;;;1884471;74;21110;-79
2021/07/06 07:17:43;;;;;;;7.30;1.40;;;23.00;99.90;;;;;;1811532;77;21093;-76
2021/07/06 07:20:12;;;;;;;3.05;1.30;;;23.10;99.90;;;;;;1883567;74;21147;-77
2021/07/06 07:22:40;;;;;;;4.28;1.20;;;23.10;99.90;;;;;;1850853;76;21219;-76
2021/07/06 07:25:08;;;;;;;3.87;1.12;;;23.10;99.90;;;;;;1848822;77;21611;-77
2021/07/06 07:27:36;;;;;;;3.15;1.05;;;23.20;99.90;;;;;;1887619;74;21050;-77
2021/07/06 07:30:05;;;;;;;3.83;1.00;;;23.20;99.90;;;;;;1843525;78;21100;-77
2021/07/06 07:32:33;;;;;;;1.98;1.00;;;23.20;99.90;;;;;;1889827;74;21090;-76
2021/07/06 07:35:00;;;;;;;8.73;1.20;;;23.20;99.90;;;;;;1889222;74;21101;-75
2021/07/06 07:37:28;;;;;;;5.45;1.20;;;23.10;99.90;;;;;;1841354;76;21189;-77
2021/07/06 07:39:55;;;;;;;6.40;1.50;;;23.20;99.90;;;;;;1903304;74;21090;-77
2021/07/06 07:42:23;;;;;;;2.67;1.27;;;23.20;99.90;;;;;;1846793;76;21081;-77
2021/07/06 07:44:51;;;;;;;4.08;1.25;;;23.20;99.90;;;;;;1842220;76;21108;-77
2021/07/06 07:47:19;;;;;;;4.12;1.40;;;23.20;99.90;;;;;;1842015;77;21203;-76
2021/07/06 07:49:46;;;;;;;2.05;1.10;;;23.10;99.90;;;;;;1841093;75;21158;-77
2021/07/06 07:52:13;;;;;;;4.70;1.30;;;23.10;99.90;;;;;;1882954;74;21183;-77
2021/07/06 07:54:41;;;;;;;7.90;1.40;;;23.00;99.90;;;;;;1839380;76;21618;-76
2021/07/06 07:57:23;;;;;;;3.47;1.10;;;22.90;99.90;;;;;;1810785;77;21166;-77
2021/07/06 07:59:41;;;;;;;6.42;1.15;;;22.80;99.90;;;;;;1809470;77;21138;-77
2021/07/06 08:02:09;;;;;;;5.12;1.50;;;22.90;99.90;;;;;;1886959;74;21657;-77
2021/07/06 08:04:36;;;;;;;4.62;1.20;;;22.90;99.90;;;;;;1881251;74;21623;-77
2021/07/06 08:07:04;;;;;;;6.85;1.57;;;23.10;99.90;;;;;;1881478;74;21243;-77
2021/07/06 08:09:31;;;;;;;2.95;1.45;;;23.20;99.90;;;;;;1882952;74;22341;-77
2021/07/06 08:11:59;;;;;;;5.22;1.50;;;23.20;99.90;;;;;;1843084;76;21648;-76
2021/07/06 08:14:26;;;;;;;4.20;1.40;;;23.30;99.90;;;;;;1887102;74;21082;-76
2021/07/06 08:16:54;;;;;;;4.00;1.50;;;23.40;99.90;;;;;;1883915;74;21106;-76
2021/07/06 08:19:22;;;;;;;4.20;0.88;;;23.40;99.90;;;;;;1881843;74;21193;-77
2021/07/06 08:21:49;;;;;;;3.17;1.40;;;23.50;99.90;;;;;;1883533;74;21431;-76
2021/07/06 08:24:17;;;;;;;5.22;1.50;;;23.70;99.90;;;;;;1876383;74;21132;-76
2021/07/06 08:26:46;;;;;;;7.92;1.30;;;23.70;99.90;;;;;;1886493;74;21117;-77
2021/07/06 08:29:16;;;;;;;6.55;1.60;;;23.80;99.90;;;;;;1881476;74;21234;-76
2021/07/06 08:31:43;;;;;;;3.15;1.47;;;23.90;99.90;;;;;;1841110;76;21118;-76
2021/07/06 08:34:10;;;;;;;4.08;1.55;;;24.00;99.90;;;;;;1881177;74;21189;-77
2021/07/06 08:36:38;;;;;;;6.08;1.32;;;24.10;99.90;;;;;;1879965;74;21137;-76
2021/07/06 08:39:05;;;;;;;2.37;1.50;;;24.10;99.90;;;;;;1885040;74;21117;-74
2021/07/06 08:41:35;;;;;;;7.90;1.50;;;24.20;99.90;;;;;;1892943;74;21246;-72
2021/07/06 08:44:04;;;;;;;2.33;1.20;;;24.30;99.90;;;;;;1882366;74;21042;-73
2021/07/06 08:46:33;;;;;;;3.75;1.40;;;24.30;99.90;;;;;;1877976;74;21612;-72
2021/07/06 08:49:01;;;;;;;7.65;1.52;;;24.20;99.90;;;;;;1884398;74;21023;-72
2021/07/06 08:51:30;;;;;;;6.37;1.55;;;24.20;99.90;;;;;;1880358;74;22241;-75
2021/07/06 08:53:58;;;;;;;3.85;1.40;;;24.20;99.90;;;;;;1883090;74;21195;-73
2021/07/06 08:56:25;;;;;;;4.45;1.25;;;24.20;99.90;;;;;;1879875;74;21161;-72
2021/07/06 08:58:53;;;;;;;6.35;1.30;;;24.20;99.90;;;;;;1888067;74;21170;-72
2021/07/06 09:01:30;;;;;;;8.40;1.57;;;24.20;99.90;;;;;;1880587;74;21149;-72
2021/07/06 09:04:00;;;;;;;5.17;1.22;;;24.30;99.90;;;;;;1885205;74;21434;-72
2021/07/06 09:06:30;;;;;;;3.58;1.30;;;24.20;99.90;;;;;;1882244;74;21107;-73
2021/07/06 09:09:18;;;;;;;4.20;1.45;;;24.20;99.90;;;;;;1883631;74;21126;-72
2021/07/06 09:11:50;;;;;;;7.15;1.30;;;24.30;99.90;;;;;;1886490;74;21634;-73
2021/07/06 09:14:18;;;;;;;1.95;0.90;;;24.20;99.90;;;;;;1884118;74;21133;-72
2021/07/06 09:16:47;;;;;;;2.00;1.10;;;24.20;99.90;;;;;;1890401;74;21135;-72
2021/07/06 09:19:25;;;;;;;4.30;1.32;;;24.00;99.90;;;;;;1884049;74;21191;-73
2021/07/06 09:22:12;;;;;;;4.75;1.17;;;24.10;99.90;;;;;;1858241;76;21130;-72
2021/07/06 09:24:42;;;;;;;4.33;0.93;;;24.10;99.90;;;;;;1878286;74;21123;-72
2021/07/06 09:27:25;;;;;;;4.53;1.07;;;24.00;99.90;;;;;;1881905;74;21152;-72
2021/07/06 09:30:12;;;;;;;7.05;1.02;;;24.10;99.90;;;;;;1838827;76;21418;-72
2021/07/06 09:32:46;;;;;;;1.72;1.00;;;24.00;99.90;;;;;;1893345;75;21101;-72
2021/07/06 09:35:16;;;;;;;2.58;1.00;;;24.00;99.90;;;;;;1884514;74;21165;-72
2021/07/06 09:37:49;;;;;;;4.92;0.90;;;23.90;99.90;;;;;;1889108;74;21559;-72
2021/07/06 09:40:32;;;;;;;4.72;1.10;;;23.90;99.90;;;;;;1890203;74;21141;-72
2021/07/06 09:43:22;;;;;;;9.23;1.95;;;23.80;99.90;;;;;;1882898;74;21506;-72
2021/07/06 09:46:08;;;;;;;2.65;0.70;;;23.80;99.90;;;;;;1868087;74;22426;-71
2021/07/06 09:48:44;;;;;;;2.95;0.70;;;23.70;99.90;;;;;;1842507;76;21108;-71
2021/07/06 09:51:24;;;;;;;8.05;1.00;;;23.70;99.90;;;;;;1881540;74;21141;-72
2021/07/06 09:53:53;;;;;;;1.87;0.70;;;23.80;99.90;;;;;;1842052;77;21123;-71
2021/07/06 09:56:23;;;;;;;3.98;0.80;;;23.80;99.90;;;;;;1844308;76;21031;-72
2021/07/06 09:58:56;;;;;;;2.60;0.90;;;23.80;99.90;;;;;;1840884;76;21134;-70
2021/07/06 10:01:25;;;;;;;4.05;0.98;;;23.80;99.90;;;;;;1836604;76;21694;-72
2021/07/06 10:03:54;;;;;;;6.15;1.15;;;23.70;99.90;;;;;;1888579;74;21081;-72
2021/07/06 10:06:27;;;;;;;1.98;1.05;;;23.60;99.90;;;;;;1886939;74;21426;-73
2021/07/06 10:08:56;;;;;;;4.47;0.80;;;23.60;99.90;;;;;;1882355;75;21199;-72
2021/07/06 10:11:25;;;;;;;3.30;1.00;;;23.60;99.90;;;;;;1886308;75;21141;-73
2021/07/06 10:13:55;;;;;;;3.05;0.90;;;23.60;99.90;;;;;;1885938;75;21473;-73
2021/07/06 10:16:23;;;;;;;4.85;1.00;;;23.50;99.90;;;;;;1882365;74;21098;-72
2021/07/06 10:18:50;;;;;;;1.67;0.78;;;23.50;99.90;;;;;;1871080;75;21030;-72
2021/07/06 10:21:18;;;;;;;5.58;1.17;;;23.50;99.90;;;;;;1883185;74;21168;-72
2021/07/06 10:23:50;;;;;;;4.70;0.80;;;23.50;99.90;;;;;;1888516;74;21587;-75
2021/07/06 10:26:27;;;;;;;5.55;0.90;;;23.50;99.90;;;;;;1844904;76;21080;-76
2021/07/06 10:28:55;;;;;;;3.10;1.30;;;23.40;99.90;;;;;;1901129;74;21085;-75
2021/07/06 10:31:24;;;;;;;4.47;0.95;;;23.40;99.90;;;;;;1886236;74;21086;-76
2021/07/06 10:33:53;;;;;;;3.60;0.80;;;23.30;99.90;;;;;;1883714;74;21093;-75
2021/07/06 10:36:36;;;;;;;5.70;1.32;;;23.30;99.90;;;;;;1882362;74;21137;-76
2021/07/06 10:39:06;;;;;;;4.92;1.30;;;23.20;99.90;;;;;;1880147;74;21145;-75
2021/07/06 10:41:39;;;;;;;3.95;0.90;;;23.10;99.90;;;;;;1882965;74;21185;-76
2021/07/06 10:44:08;;;;;;;1.85;0.90;;;22.90;99.90;;;;;;1879370;74;21168;-75
2021/07/06 10:46:43;;;;;;;3.05;0.80;;;22.90;99.90;;;;;;1882936;74;21615;-76
2021/07/06 10:49:28;;;;;;;1.15;0.70;;;22.90;99.90;;;;;;1882214;74;21597;-77
2021/07/06 10:51:57;;;;;;;1.50;0.80;;;23.00;99.90;;;;;;1866129;74;21149;-77
2021/07/06 10:54:27;;;;;;;3.05;1.02;;;23.10;99.90;;;;;;1886575;74;21153;-76
2021/07/06 10:56:57;;;;;;;1.62;0.93;;;23.10;99.90;;;;;;1885169;74;21853;-77
2021/07/06 10:59:36;;;;;;;7.42;2.90;;;23.10;99.90;;;;;;1883242;74;21121;-76
2021/07/06 11:02:07;;;;;;;5.25;2.50;;;23.10;99.90;;;;;;1881001;74;21131;-77
2021/07/06 11:04:50;;;;;;;7.85;1.95;;;23.10;99.90;;;;;;1885532;74;21192;-77
2021/07/06 11:07:42;;;;;;;9.20;2.65;;;23.10;99.90;;;;;;1882938;74;21121;-77
2021/07/06 11:10:08;;;;;;;9.98;3.17;;;23.10;99.90;;;;;;1806350;77;21740;-76
2021/07/06 11:12:44;;;;;;;5.67;0.90;;;23.20;99.90;;;;;;1826713;77;21133;-76
2021/07/06 11:15:20;;;;;;;5.75;1.60;;;23.20;99.90;;;;;;1847296;76;21086;-76
2021/07/06 11:18:01;;;;;;;11.12;3.80;;;23.20;99.90;;;;;;1852987;76;21166;-77
2021/07/06 11:20:38;;;;;;;7.35;2.00;;;23.20;99.90;;;;;;1845026;76;21298;-76
2021/07/06 11:23:09;;;;;;;7.37;1.80;;;23.20;99.90;;;;;;1850185;75;21086;-78
2021/07/06 11:25:39;;;;;;;11.20;4.67;;;23.20;99.90;;;;;;1847094;76;21473;-77
2021/07/06 11:28:27;;;;;;;7.08;2.45;;;23.20;99.90;;;;;;1852910;76;21095;-77
2021/07/06 11:31:02;;;;;;;4.42;1.07;;;23.30;99.90;;;;;;1850702;76;21176;-77
2021/07/06 11:33:39;;;;;;;2.98;0.82;;;23.30;99.90;;;;;;1889446;74;21125;-77
2021/07/06 11:36:08;;;;;;;6.72;2.50;;;23.30;99.90;;;;;;1876646;74;21552;-78
2021/07/06 11:38:41;;;;;;;6.65;0.88;;;23.30;99.90;;;;;;1877475;74;21159;-77
2021/07/06 11:41:11;;;;;;;2.75;0.98;;;23.30;99.90;;;;;;1887607;74;21094;-77
2021/07/06 11:43:41;;;;;;;2.77;1.02;;;23.40;99.90;;;;;;1882962;74;21014;-76
2021/07/06 11:46:12;;;;;;;5.97;2.00;;;23.40;99.90;;;;;;1883727;74;21147;-77
2021/07/06 11:48:42;;;;;;;5.33;1.10;;;23.40;99.90;;;;;;1885925;74;21092;-77
2021/07/06 11:51:12;;;;;;;9.90;2.00;;;23.40;99.90;;;;;;1843026;76;21059;-77
2021/07/06 11:53:42;;;;;;;8.18;2.30;;;23.50;99.90;;;;;;1874217;74;21026;-77
2021/07/06 11:56:14;;;;;;;19.92;6.42;;;23.40;99.90;;;;;;1867852;74;21667;-77
2021/07/06 11:58:41;;;;;;;2.42;1.15;;;23.50;99.90;;;;;;1886962;74;21097;-78
2021/07/06 12:01:13;;;;;;;3.92;1.22;;;23.50;99.90;;;;;;1827302;77;21084;-77
2021/07/06 12:03:41;;;;;;;2.42;0.95;;;23.50;99.90;;;;;;1841890;76;21098;-77
2021/07/06 12:06:20;;;;;;;7.42;1.55;;;23.50;99.90;;;;;;1883120;74;21171;-77
2021/07/06 12:08:53;;;;;;;3.67;1.00;;;23.50;99.90;;;;;;1885775;74;21563;-76
2021/07/06 12:11:29;;;;;;;19.77;6.65;;;23.50;99.90;;;;;;1884640;74;21678;-76
2021/07/06 12:13:59;;;;;;;5.08;1.37;;;23.60;99.90;;;;;;1884032;74;21670;-76
2021/07/06 12:16:29;;;;;;;1.35;0.80;;;23.70;99.90;;;;;;1879638;74;21141;-77
2021/07/06 12:18:58;;;;;;;2.40;0.70;;;23.70;99.90;;;;;;1872622;74;21144;-78
2021/07/06 12:21:38;;;;;;;4.40;1.20;;;23.70;99.90;;;;;;1886098;74;21262;-78
2021/07/06 12:24:11;;;;;;;1.98;0.65;;;23.80;99.90;;;;;;1885770;74;21106;-78
2021/07/06 12:26:44;;;;;;;1.20;0.75;;;23.80;99.90;;;;;;1882308;74;21058;-71
2021/07/06 12:29:11;;;;;;;1.62;0.70;;;24.10;99.90;;;;;;1885398;74;21137;-72
2021/07/06 12:31:39;;;;;;;1.20;0.65;;;24.10;99.90;;;;;;1881427;74;21074;-76
2021/07/06 12:34:18;;;;;;;5.70;1.20;;;24.30;99.90;;;;;;1869423;74;21089;-72
2021/07/06 12:36:51;;;;;;;4.87;0.62;;;24.20;99.90;;;;;;1842969;76;21102;-72
2021/07/06 12:39:34;;;;;;;1.62;0.50;;;24.20;99.90;;;;;;1876421;74;21717;-72
2021/07/06 12:42:18;;;;;;;1.65;0.88;;;24.20;99.90;;;;;;1837797;75;21141;-72
2021/07/06 12:44:46;;;;;;;6.12;0.80;;;24.30;99.90;;;;;;1886461;74;21104;-73
2021/07/06 12:47:44;;;;;;;1.37;0.60;;;24.40;99.90;;;;;;1886179;74;21083;-74
2021/07/06 12:50:21;;;;;;;3.70;0.78;;;24.50;99.90;;;;;;1883103;74;21181;-80
2021/07/06 12:52:53;;;;;;;4.15;0.60;;;24.60;99.90;;;;;;1884599;74;21105;-74
2021/07/06 12:55:23;;;;;;;4.35;0.60;;;24.70;99.90;;;;;;1880681;74;21101;-72
2021/07/06 12:57:52;;;;;;;3.22;0.65;;;24.70;99.90;;;;;;1881478;74;21094;-72
2021/07/06 13:00:25;;;;;;;1.27;0.50;;;24.80;99.90;;;;;;1876521;74;21231;-77